sensor_id;sensor_type;location;lat;lon;timestamp;pressure;altitude;pressure_sealevel;temperature;humidity
34586;BME280;20816;50.950;11.108;2023-04-03T00:00:50;99592.94;;;1.24;100.00
34586;BME280;20816;50.950;11.108;2023-04-03T00:03:17;99590.41;;;1.26;100.00
34586;BME280;20816;50.950;11.108;2023-04-03T00:05:45;99603.94;;;1.17;100.00
34586;BME280;20816;50.950;11.108;2023-04-03T00:08:12;99596.84;;;1.11;100.00
34586;BME280;20816;50.950;11.108;2023-04-03T00:10:39;99597.13;;;1.21;100.00
34586;BME280;20816;50.950;11.108;2023-04-03T00:13:06;99607.47;;;1.21;100.00
34586;BME280;20816;50.950;11.108;2023-04-03T00:15:34;99594.41;;;1.16;100.00
34586;BME280;20816;50.950;11.108;2023-04-03T00:18:02;99602.22;;;1.18;100.00
34586;BME280;20816;50.950;11.108;2023-04-03T00:20:29;99602.25;;;1.19;100.00
34586;BME280;20816;50.950;11.108;2023-04-03T00:22:56;99600.06;;;1.04;100.00
34586;BME280;20816;50.950;11.108;2023-04-03T00:25:23;99602.72;;;1.06;100.00
34586;BME280;20816;50.950;11.108;2023-04-03T00:27:51;99602.25;;;1.19;100.00
34586;BME280;20816;50.950;11.108;2023-04-03T00:30:19;99598.56;;;1.11;100.00
34586;BME280;20816;50.950;11.108;2023-04-03T00:32:48;99601.69;;;1.01;100.00
34586;BME280;20816;50.950;11.108;2023-04-03T00:35:15;99601.81;;;1.05;100.00
34586;BME280;20816;50.950;11.108;2023-04-03T00:37:45;99605.78;;;0.94;100.00
34586;BME280;20816;50.950;11.108;2023-04-03T00:40:13;99609.25;;;0.95;100.00
34586;BME280;20816;50.950;11.108;2023-04-03T00:42:41;99604.50;;;0.81;100.00
34586;BME280;20816;50.950;11.108;2023-04-03T00:47:44;99610.59;;;0.83;100.00
34586;BME280;20816;50.950;11.108;2023-04-03T00:50:11;99610.19;;;0.71;100.00
34586;BME280;20816;50.950;11.108;2023-04-03T00:52:38;99600.03;;;0.77;100.00
34586;BME280;20816;50.950;11.108;2023-04-03T00:55:07;99606.75;;;0.72;100.00
34586;BME280;20816;50.950;11.108;2023-04-03T00:57:35;99603.03;;;0.64;100.00
34586;BME280;20816;50.950;11.108;2023-04-03T01:00:06;99605.78;;;0.69;100.00
34586;BME280;20816;50.950;11.108;2023-04-03T01:02:35;99599.53;;;0.62;100.00
34586;BME280;20816;50.950;11.108;2023-04-03T01:05:03;99595.41;;;0.67;100.00
34586;BME280;20816;50.950;11.108;2023-04-03T01:07:31;99604.50;;;0.56;100.00
34586;BME280;20816;50.950;11.108;2023-04-03T01:10:02;99602.75;;;0.55;100.00
34586;BME280;20816;50.950;11.108;2023-04-03T01:12:32;99597.47;;;0.52;100.00
34586;BME280;20816;50.950;11.108;2023-04-03T01:15:02;99593.97;;;0.50;100.00
34586;BME280;20816;50.950;11.108;2023-04-03T01:17:38;99609.09;;;0.65;100.00
34586;BME280;20816;50.950;11.108;2023-04-03T01:22:55;99611.44;;;0.57;100.00
34586;BME280;20816;50.950;11.108;2023-04-03T01:25:24;99606.28;;;0.57;100.00
34586;BME280;20816;50.950;11.108;2023-04-03T01:27:50;99609.66;;;0.56;100.00
34586;BME280;20816;50.950;11.108;2023-04-03T01:30:19;99611.31;;;0.54;100.00
34586;BME280;20816;50.950;11.108;2023-04-03T01:32:47;99613.50;;;0.67;100.00
34586;BME280;20816;50.950;11.108;2023-04-03T01:35:15;99615.19;;;0.65;100.00
34586;BME280;20816;50.950;11.108;2023-04-03T01:37:41;99611.75;;;0.66;100.00
34586;BME280;20816;50.950;11.108;2023-04-03T01:40:08;99615.94;;;0.63;100.00
34586;BME280;20816;50.950;11.108;2023-04-03T01:42:35;99611.63;;;0.63;100.00
34586;BME280;20816;50.950;11.108;2023-04-03T01:45:02;99608.03;;;0.58;100.00
34586;BME280;20816;50.950;11.108;2023-04-03T01:47:29;99618.78;;;0.70;100.00
34586;BME280;20816;50.950;11.108;2023-04-03T01:49:56;99624.75;;;0.68;100.00
34586;BME280;20816;50.950;11.108;2023-04-03T01:52:23;99626.31;;;0.64;100.00
34586;BME280;20816;50.950;11.108;2023-04-03T01:54:49;99621.44;;;0.48;100.00
34586;BME280;20816;50.950;11.108;2023-04-03T01:57:16;99620.00;;;0.56;100.00
34586;BME280;20816;50.950;11.108;2023-04-03T01:59:43;99624.25;;;0.54;100.00
34586;BME280;20816;50.950;11.108;2023-04-03T02:02:10;99621.09;;;0.63;100.00
34586;BME280;20816;50.950;11.108;2023-04-03T02:04:38;99629.03;;;0.67;100.00
34586;BME280;20816;50.950;11.108;2023-04-03T02:07:05;99625.63;;;0.68;100.00
34586;BME280;20816;50.950;11.108;2023-04-03T02:09:32;99628.25;;;0.70;100.00
34586;BME280;20816;50.950;11.108;2023-04-03T02:11:58;99628.41;;;0.49;100.00
34586;BME280;20816;50.950;11.108;2023-04-03T02:14:25;99638.63;;;0.46;100.00
34586;BME280;20816;50.950;11.108;2023-04-03T02:16:53;99633.78;;;0.55;100.00
34586;BME280;20816;50.950;11.108;2023-04-03T02:19:20;99634.66;;;0.55;100.00
34586;BME280;20816;50.950;11.108;2023-04-03T02:21:47;99636.09;;;0.47;100.00
34586;BME280;20816;50.950;11.108;2023-04-03T02:24:13;99640.38;;;0.47;100.00
34586;BME280;20816;50.950;11.108;2023-04-03T02:26:40;99634.59;;;0.54;100.00
34586;BME280;20816;50.950;11.108;2023-04-03T02:29:07;99638.84;;;0.52;100.00
34586;BME280;20816;50.950;11.108;2023-04-03T02:31:33;99638.03;;;0.53;100.00
34586;BME280;20816;50.950;11.108;2023-04-03T02:34:00;99642.38;;;0.54;100.00
34586;BME280;20816;50.950;11.108;2023-04-03T02:36:27;99640.03;;;0.62;100.00
34586;BME280;20816;50.950;11.108;2023-04-03T02:38:55;99643.94;;;0.49;100.00
34586;BME280;20816;50.950;11.108;2023-04-03T02:41:22;99639.38;;;0.42;100.00
34586;BME280;20816;50.950;11.108;2023-04-03T02:43:48;99643.84;;;0.47;100.00
34586;BME280;20816;50.950;11.108;2023-04-03T02:46:15;99653.94;;;0.40;100.00
34586;BME280;20816;50.950;11.108;2023-04-03T02:48:42;99648.34;;;0.27;100.00
34586;BME280;20816;50.950;11.108;2023-04-03T02:51:08;99646.53;;;0.49;100.00
34586;BME280;20816;50.950;11.108;2023-04-03T02:53:35;99642.03;;;0.45;100.00
34586;BME280;20816;50.950;11.108;2023-04-03T02:56:02;99641.78;;;0.37;100.00
34586;BME280;20816;50.950;11.108;2023-04-03T02:58:29;99640.19;;;0.41;100.00
34586;BME280;20816;50.950;11.108;2023-04-03T03:00:56;99646.81;;;0.33;100.00
34586;BME280;20816;50.950;11.108;2023-04-03T03:03:23;99647.88;;;0.39;100.00
34586;BME280;20816;50.950;11.108;2023-04-03T03:05:49;99645.50;;;0.45;100.00
34586;BME280;20816;50.950;11.108;2023-04-03T03:08:16;99645.91;;;0.32;100.00
34586;BME280;20816;50.950;11.108;2023-04-03T03:10:46;99649.63;;;0.40;100.00
34586;BME280;20816;50.950;11.108;2023-04-03T03:13:13;99645.47;;;0.44;100.00
34586;BME280;20816;50.950;11.108;2023-04-03T03:15:39;99648.06;;;0.44;100.00
34586;BME280;20816;50.950;11.108;2023-04-03T03:18:06;99645.47;;;0.44;100.00
34586;BME280;20816;50.950;11.108;2023-04-03T03:20:33;99647.94;;;0.41;100.00
34586;BME280;20816;50.950;11.108;2023-04-03T03:23:00;99649.25;;;0.30;100.00
34586;BME280;20816;50.950;11.108;2023-04-03T03:25:27;99655.63;;;0.39;100.00
34586;BME280;20816;50.950;11.108;2023-04-03T03:27:53;99646.56;;;0.50;100.00
34586;BME280;20816;50.950;11.108;2023-04-03T03:30:20;99662.59;;;0.16;100.00
34586;BME280;20816;50.950;11.108;2023-04-03T03:32:47;99656.09;;;0.27;100.00
34586;BME280;20816;50.950;11.108;2023-04-03T03:35:14;99657.75;;;0.25;100.00
34586;BME280;20816;50.950;11.108;2023-04-03T03:37:41;99656.13;;;0.29;100.00
34586;BME280;20816;50.950;11.108;2023-04-03T03:40:08;99654.94;;;0.19;100.00
34586;BME280;20816;50.950;11.108;2023-04-03T03:42:35;99661.56;;;0.13;100.00
34586;BME280;20816;50.950;11.108;2023-04-03T03:45:01;99662.47;;;0.13;100.00
34586;BME280;20816;50.950;11.108;2023-04-03T03:47:28;99660.34;;;0.25;100.00
34586;BME280;20816;50.950;11.108;2023-04-03T03:49:55;99669.72;;;0.23;100.00
34586;BME280;20816;50.950;11.108;2023-04-03T03:52:21;99671.41;;;0.23;100.00
34586;BME280;20816;50.950;11.108;2023-04-03T03:54:48;99671.75;;;0.08;100.00
34586;BME280;20816;50.950;11.108;2023-04-03T03:57:15;99666.69;;;0.11;100.00
34586;BME280;20816;50.950;11.108;2023-04-03T03:59:42;99670.22;;;0.13;100.00
34586;BME280;20816;50.950;11.108;2023-04-03T04:02:11;99668.91;;;0.24;100.00
34586;BME280;20816;50.950;11.108;2023-04-03T04:04:37;99675.63;;;0.19;100.00
34586;BME280;20816;50.950;11.108;2023-04-03T04:07:04;99673.19;;;0.24;100.00
34586;BME280;20816;50.950;11.108;2023-04-03T04:09:31;99679.13;;;0.21;100.00
34586;BME280;20816;50.950;11.108;2023-04-03T04:11:57;99674.00;;;0.23;100.00
34586;BME280;20816;50.950;11.108;2023-04-03T04:14:24;99681.31;;;0.11;100.00
34586;BME280;20816;50.950;11.108;2023-04-03T04:16:51;99682.31;;;0.14;100.00
34586;BME280;20816;50.950;11.108;2023-04-03T04:19:18;99684.00;;;0.14;100.00
34586;BME280;20816;50.950;11.108;2023-04-03T04:21:44;99675.38;;;0.13;100.00
34586;BME280;20816;50.950;11.108;2023-04-03T04:24:11;99682.16;;;0.10;100.00
34586;BME280;20816;50.950;11.108;2023-04-03T04:26:38;99685.78;;;0.15;100.00
34586;BME280;20816;50.950;11.108;2023-04-03T04:29:05;99682.22;;;0.11;100.00
34586;BME280;20816;50.950;11.108;2023-04-03T04:31:31;99685.84;;;0.16;100.00
34586;BME280;20816;50.950;11.108;2023-04-03T04:33:58;99690.44;;;0.01;100.00
34586;BME280;20816;50.950;11.108;2023-04-03T04:36:25;99688.69;;;0.00;100.00
34586;BME280;20816;50.950;11.108;2023-04-03T04:38:52;99699.13;;;0.03;100.00
34586;BME280;20816;50.950;11.108;2023-04-03T04:41:21;99699.03;;;0.00;100.00
34586;BME280;20816;50.950;11.108;2023-04-03T04:43:51;99700.34;;;-0.10;100.00
34586;BME280;20816;50.950;11.108;2023-04-03T04:46:18;99706.34;;;-0.11;100.00
34586;BME280;20816;50.950;11.108;2023-04-03T04:48:45;99712.19;;;-0.16;100.00
34586;BME280;20816;50.950;11.108;2023-04-03T04:51:12;99713.59;;;-0.24;100.00
34586;BME280;20816;50.950;11.108;2023-04-03T04:53:39;99710.03;;;-0.26;100.00
34586;BME280;20816;50.950;11.108;2023-04-03T04:56:06;99707.69;;;-0.20;100.00
34586;BME280;20816;50.950;11.108;2023-04-03T04:58:33;99720.88;;;-0.14;100.00
34586;BME280;20816;50.950;11.108;2023-04-03T05:01:05;99721.84;;;-0.11;100.00
34586;BME280;20816;50.950;11.108;2023-04-03T05:03:32;99722.13;;;-0.25;100.00
34586;BME280;20816;50.950;11.108;2023-04-03T05:05:59;99718.38;;;-0.11;100.00
34586;BME280;20816;50.950;11.108;2023-04-03T05:08:26;99733.41;;;-0.01;100.00
34586;BME280;20816;50.950;11.108;2023-04-03T05:10:53;99730.38;;;-0.13;100.00
34586;BME280;20816;50.950;11.108;2023-04-03T05:13:22;99734.03;;;-0.08;100.00
34586;BME280;20816;50.950;11.108;2023-04-03T05:15:48;99738.38;;;-0.07;100.00
34586;BME280;20816;50.950;11.108;2023-04-03T05:18:15;99736.22;;;-0.17;100.00
34586;BME280;20816;50.950;11.108;2023-04-03T05:20:42;99739.63;;;-0.18;100.00
34586;BME280;20816;50.950;11.108;2023-04-03T05:23:10;99740.94;;;-0.30;100.00
34586;BME280;20816;50.950;11.108;2023-04-03T05:25:38;99731.38;;;-0.10;100.00
34586;BME280;20816;50.950;11.108;2023-04-03T05:28:06;99741.78;;;-0.08;100.00
34586;BME280;20816;50.950;11.108;2023-04-03T05:30:33;99739.47;;;-0.23;100.00
34586;BME280;20816;50.950;11.108;2023-04-03T05:32:59;99740.16;;;-0.27;100.00
34586;BME280;20816;50.950;11.108;2023-04-03T05:35:26;99731.06;;;-0.40;100.00
34586;BME280;20816;50.950;11.108;2023-04-03T05:37:53;99745.06;;;-0.33;100.00
34586;BME280;20816;50.950;11.108;2023-04-03T05:40:20;99742.22;;;-0.41;100.00
34586;BME280;20816;50.950;11.108;2023-04-03T05:42:47;99750.78;;;-0.19;100.00
34586;BME280;20816;50.950;11.108;2023-04-03T05:45:13;99741.19;;;-0.23;100.00
34586;BME280;20816;50.950;11.108;2023-04-03T05:47:40;99755.28;;;-0.15;100.00
34586;BME280;20816;50.950;11.108;2023-04-03T05:50:07;99758.16;;;-0.08;100.00
34586;BME280;20816;50.950;11.108;2023-04-03T05:52:40;99753.50;;;0.06;100.00
34586;BME280;20816;50.950;11.108;2023-04-03T05:55:09;99755.41;;;0.10;100.00
34586;BME280;20816;50.950;11.108;2023-04-03T05:57:36;99756.56;;;0.18;100.00
34586;BME280;20816;50.950;11.108;2023-04-03T06:00:06;99763.25;;;0.13;100.00
34586;BME280;20816;50.950;11.108;2023-04-03T06:02:33;99763.50;;;-0.03;100.00
34586;BME280;20816;50.950;11.108;2023-04-03T06:05:00;99770.91;;;0.10;100.00
34586;BME280;20816;50.950;11.108;2023-04-03T06:07:27;99771.50;;;0.03;100.00
34586;BME280;20816;50.950;11.108;2023-04-03T06:09:56;99783.25;;;-0.05;100.00
34586;BME280;20816;50.950;11.108;2023-04-03T06:12:23;99776.97;;;0.11;100.00
34586;BME280;20816;50.950;11.108;2023-04-03T06:14:50;99778.66;;;0.10;100.00
34586;BME280;20816;50.950;11.108;2023-04-03T06:17:17;99784.19;;;0.19;100.00
34586;BME280;20816;50.950;11.108;2023-04-03T06:19:45;99785.69;;;0.14;100.00
34586;BME280;20816;50.950;11.108;2023-04-03T06:22:12;99782.19;;;0.12;100.00
34586;BME280;20816;50.950;11.108;2023-04-03T06:24:39;99780.78;;;0.20;100.00
34586;BME280;20816;50.950;11.108;2023-04-03T06:27:06;99783.59;;;0.04;100.00
34586;BME280;20816;50.950;11.108;2023-04-03T06:29:33;99782.19;;;0.12;100.00
34586;BME280;20816;50.950;11.108;2023-04-03T06:32:00;99785.94;;;0.20;100.00
34586;BME280;20816;50.950;11.108;2023-04-03T06:34:26;99785.00;;;0.41;100.00
34586;BME280;20816;50.950;11.108;2023-04-03T06:36:53;99789.34;;;0.19;100.00
34586;BME280;20816;50.950;11.108;2023-04-03T06:39:21;99799.22;;;0.30;100.00
34586;BME280;20816;50.950;11.108;2023-04-03T06:41:49;99792.03;;;0.45;100.00
34586;BME280;20816;50.950;11.108;2023-04-03T06:44:17;99796.78;;;0.56;100.00
34586;BME280;20816;50.950;11.108;2023-04-03T06:46:44;99784.81;;;0.82;99.41
34586;BME280;20816;50.950;11.108;2023-04-03T06:49:13;99784.97;;;0.87;95.63
34586;BME280;20816;50.950;11.108;2023-04-03T06:51:40;99788.09;;;1.02;95.89
34586;BME280;20816;50.950;11.108;2023-04-03T06:54:07;99791.63;;;1.04;94.06
34586;BME280;20816;50.950;11.108;2023-04-03T06:56:34;99790.09;;;1.09;93.93
34586;BME280;20816;50.950;11.108;2023-04-03T06:59:01;99799.22;;;1.24;93.34
34586;BME280;20816;50.950;11.108;2023-04-03T07:01:29;99798.75;;;1.61;92.96
34586;BME280;20816;50.950;11.108;2023-04-03T07:03:56;99798.44;;;1.26;91.72
34586;BME280;20816;50.950;11.108;2023-04-03T07:06:24;99812.13;;;1.22;93.04
34586;BME280;20816;50.950;11.108;2023-04-03T07:08:53;99799.81;;;1.40;92.80
34586;BME280;20816;50.950;11.108;2023-04-03T07:11:21;99806.41;;;1.58;92.00
34586;BME280;20816;50.950;11.108;2023-04-03T07:13:48;99796.34;;;2.21;89.51
34586;BME280;20816;50.950;11.108;2023-04-03T07:16:15;99809.13;;;2.43;88.03
34586;BME280;20816;50.950;11.108;2023-04-03T07:18:41;99817.28;;;2.56;87.99
34586;BME280;20816;50.950;11.108;2023-04-03T07:21:08;99820.75;;;2.56;86.59
34586;BME280;20816;50.950;11.108;2023-04-03T07:23:35;99816.44;;;2.57;86.28
34586;BME280;20816;50.950;11.108;2023-04-03T07:26:02;99818.31;;;2.61;85.96
34586;BME280;20816;50.950;11.108;2023-04-03T07:28:29;99819.63;;;2.46;86.61
34586;BME280;20816;50.950;11.108;2023-04-03T07:31:02;99819.34;;;1.83;88.08
34586;BME280;20816;50.950;11.108;2023-04-03T07:33:30;99824.28;;;1.50;88.81
34586;BME280;20816;50.950;11.108;2023-04-03T07:35:57;99841.28;;;1.42;89.97
34586;BME280;20816;50.950;11.108;2023-04-03T07:38:24;99846.41;;;1.40;91.00
34586;BME280;20816;50.950;11.108;2023-04-03T07:40:52;99843.34;;;1.27;90.24
34586;BME280;20816;50.950;11.108;2023-04-03T07:43:20;99844.06;;;1.23;90.13
34586;BME280;20816;50.950;11.108;2023-04-03T07:45:48;99845.78;;;1.22;91.32
34586;BME280;20816;50.950;11.108;2023-04-03T07:48:18;99851.34;;;1.09;91.06
34586;BME280;20816;50.950;11.108;2023-04-03T07:50:45;99854.63;;;1.05;90.54
34586;BME280;20816;50.950;11.108;2023-04-03T07:53:13;99861.31;;;0.98;91.09
34586;BME280;20816;50.950;11.108;2023-04-03T07:55:40;99863.28;;;1.29;90.83
34586;BME280;20816;50.950;11.108;2023-04-03T07:58:11;99862.13;;;0.97;90.64
34586;BME280;20816;50.950;11.108;2023-04-03T08:00:38;99862.00;;;0.94;90.42
34586;BME280;20816;50.950;11.108;2023-04-03T08:03:05;99856.84;;;0.94;91.38
34586;BME280;20816;50.950;11.108;2023-04-03T08:05:40;99864.66;;;0.96;90.22
34586;BME280;20816;50.950;11.108;2023-04-03T08:08:09;99858.66;;;0.97;89.93
34586;BME280;20816;50.950;11.108;2023-04-03T08:10:37;99868.63;;;0.86;90.00
34586;BME280;20816;50.950;11.108;2023-04-03T08:13:05;99871.84;;;0.80;90.00
34586;BME280;20816;50.950;11.108;2023-04-03T08:15:32;99871.16;;;0.84;88.60
34586;BME280;20816;50.950;11.108;2023-04-03T08:17:59;99863.03;;;0.98;87.72
34586;BME280;20816;50.950;11.108;2023-04-03T08:20:27;99876.31;;;1.07;87.91
34586;BME280;20816;50.950;11.108;2023-04-03T08:22:54;99869.84;;;1.69;84.43
34586;BME280;20816;50.950;11.108;2023-04-03T08:25:21;99860.84;;;2.37;83.82
34586;BME280;20816;50.950;11.108;2023-04-03T08:27:48;99856.38;;;2.90;80.43
34586;BME280;20816;50.950;11.108;2023-04-03T08:30:15;99859.63;;;2.83;79.71
34586;BME280;20816;50.950;11.108;2023-04-03T08:32:41;99871.16;;;2.36;79.43
34586;BME280;20816;50.950;11.108;2023-04-03T08:35:10;99859.00;;;2.06;80.93
34586;BME280;20816;50.950;11.108;2023-04-03T08:37:38;99864.72;;;2.23;82.87
34586;BME280;20816;50.950;11.108;2023-04-03T08:40:07;99866.22;;;2.72;80.21
34586;BME280;20816;50.950;11.108;2023-04-03T08:48:21;99862.06;;;2.77;77.30
34586;BME280;20816;50.950;11.108;2023-04-03T08:50:53;99862.06;;;2.77;76.91
34586;BME280;20816;50.950;11.108;2023-04-03T08:53:25;99860.50;;;3.78;74.98
34586;BME280;20816;50.950;11.108;2023-04-03T08:55:54;99853.13;;;4.69;70.88
34586;BME280;20816;50.950;11.108;2023-04-03T08:58:24;99852.06;;;5.00;69.55
34586;BME280;20816;50.950;11.108;2023-04-03T09:00:57;99855.44;;;4.96;68.78
34586;BME280;20816;50.950;11.108;2023-04-03T09:03:28;99856.63;;;5.12;68.52
34586;BME280;20816;50.950;11.108;2023-04-03T09:06:13;99856.66;;;5.57;67.32
34586;BME280;20816;50.950;11.108;2023-04-03T09:14:27;99853.03;;;6.52;66.32
34586;BME280;20816;50.950;11.108;2023-04-03T09:17:00;99854.91;;;5.56;67.16
34586;BME280;20816;50.950;11.108;2023-04-03T09:22:13;99860.75;;;5.00;66.39
34586;BME280;20816;50.950;11.108;2023-04-03T09:24:45;99860.97;;;4.70;67.39
34586;BME280;20816;50.950;11.108;2023-04-03T09:27:13;99868.22;;;4.46;67.80
34586;BME280;20816;50.950;11.108;2023-04-03T09:29:42;99867.44;;;4.48;68.99
34586;BME280;20816;50.950;11.108;2023-04-03T09:32:31;99854.19;;;4.78;67.32
34586;BME280;20816;50.950;11.108;2023-04-03T09:35:03;99856.69;;;4.72;65.02
34586;BME280;20816;50.950;11.108;2023-04-03T09:37:48;99858.09;;;5.89;65.13
34586;BME280;20816;50.950;11.108;2023-04-03T09:42:52;99847.13;;;6.65;62.00
34586;BME280;20816;50.950;11.108;2023-04-03T09:45:34;99847.53;;;6.97;62.70
34586;BME280;20816;50.950;11.108;2023-04-03T09:48:12;99847.91;;;7.27;61.88
34586;BME280;20816;50.950;11.108;2023-04-03T09:56:28;99837.94;;;6.34;63.24
34586;BME280;20816;50.950;11.108;2023-04-03T10:04:08;99850.50;;;4.30;66.67
34586;BME280;20816;50.950;11.108;2023-04-03T10:06:41;99853.81;;;3.88;66.84
34586;BME280;20816;50.950;11.108;2023-04-03T10:09:32;99857.72;;;3.71;67.15
34586;BME280;20816;50.950;11.108;2023-04-03T10:12:12;99845.50;;;3.67;67.91
34586;BME280;20816;50.950;11.108;2023-04-03T10:14:55;99851.00;;;3.79;68.57
34586;BME280;20816;50.950;11.108;2023-04-03T10:17:39;99850.94;;;3.76;66.43
34586;BME280;20816;50.950;11.108;2023-04-03T10:25:43;99848.59;;;3.86;66.06
34586;BME280;20816;50.950;11.108;2023-04-03T10:31:14;99842.00;;;4.01;64.35
34586;BME280;20816;50.950;11.108;2023-04-03T10:33:55;99840.84;;;4.24;66.12
34586;BME280;20816;50.950;11.108;2023-04-03T10:36:33;99839.94;;;4.61;64.47
34586;BME280;20816;50.950;11.108;2023-04-03T10:39:10;99830.41;;;4.63;65.45
34586;BME280;20816;50.950;11.108;2023-04-03T10:41:53;99824.66;;;4.76;62.88
34586;BME280;20816;50.950;11.108;2023-04-03T10:48:02;99803.56;;;7.38;57.99
34586;BME280;20816;50.950;11.108;2023-04-03T10:53:38;99817.25;;;8.04;55.01
34586;BME280;20816;50.950;11.108;2023-04-03T10:56:25;99807.47;;;7.80;56.70
34586;BME280;20816;50.950;11.108;2023-04-03T10:58:58;99820.00;;;6.57;60.52
34586;BME280;20816;50.950;11.108;2023-04-03T11:01:33;99812.41;;;6.13;65.24
34586;BME280;20816;50.950;11.108;2023-04-03T11:04:04;99817.78;;;5.71;65.17
34586;BME280;20816;50.950;11.108;2023-04-03T11:06:36;99813.56;;;4.87;66.63
34586;BME280;20816;50.950;11.108;2023-04-03T11:09:28;99805.31;;;5.07;68.43
34586;BME280;20816;50.950;11.108;2023-04-03T11:12:03;99808.47;;;4.93;68.05
34586;BME280;20816;50.950;11.108;2023-04-03T11:14:34;99799.25;;;4.66;69.75
34586;BME280;20816;50.950;11.108;2023-04-03T11:17:54;99799.94;;;5.00;69.20
34586;BME280;20816;50.950;11.108;2023-04-03T11:20:26;99802.28;;;4.88;69.76
34586;BME280;20816;50.950;11.108;2023-04-03T11:23:04;99794.06;;;5.10;66.90
34586;BME280;20816;50.950;11.108;2023-04-03T11:25:34;99791.53;;;4.71;65.52
34586;BME280;20816;50.950;11.108;2023-04-03T11:28:06;99780.97;;;5.07;67.31
34586;BME280;20816;50.950;11.108;2023-04-03T11:33:21;99787.16;;;4.68;64.73
34586;BME280;20816;50.950;11.108;2023-04-03T11:35:54;99790.00;;;5.24;62.63
34586;BME280;20816;50.950;11.108;2023-04-03T11:38:33;99777.97;;;6.37;61.10
34586;BME280;20816;50.950;11.108;2023-04-03T11:41:03;99772.09;;;7.29;58.23
34586;BME280;20816;50.950;11.108;2023-04-03T11:43:33;99771.22;;;7.30;60.67
34586;BME280;20816;50.950;11.108;2023-04-03T11:46:07;99785.34;;;6.08;62.66
34586;BME280;20816;50.950;11.108;2023-04-03T11:53:40;99785.56;;;4.75;68.72
34586;BME280;20816;50.950;11.108;2023-04-03T12:01:51;99778.97;;;4.94;69.10
34586;BME280;20816;50.950;11.108;2023-04-03T12:04:21;99774.03;;;5.06;64.80
34586;BME280;20816;50.950;11.108;2023-04-03T12:09:33;99774.63;;;6.49;61.84
34586;BME280;20816;50.950;11.108;2023-04-03T12:12:21;99754.63;;;7.25;57.87
34586;BME280;20816;50.950;11.108;2023-04-03T12:14:49;99747.38;;;7.95;55.53
34586;BME280;20816;50.950;11.108;2023-04-03T12:17:23;99746.44;;;7.87;56.50
34586;BME280;20816;50.950;11.108;2023-04-03T12:19:51;99748.06;;;7.68;55.75
34586;BME280;20816;50.950;11.108;2023-04-03T12:22:20;99746.25;;;7.63;55.27
34586;BME280;20816;50.950;11.108;2023-04-03T12:24:52;99748.06;;;7.73;57.15
34586;BME280;20816;50.950;11.108;2023-04-03T12:30:00;99743.38;;;5.94;62.96
34586;BME280;20816;50.950;11.108;2023-04-03T12:47:00;99732.63;;;7.06;58.07
34586;BME280;20816;50.950;11.108;2023-04-03T12:51:55;99721.38;;;7.12;59.42
34586;BME280;20816;50.950;11.108;2023-04-03T12:54:30;99717.44;;;6.68;60.16
34586;BME280;20816;50.950;11.108;2023-04-03T12:57:23;99720.53;;;5.79;61.38
34586;BME280;20816;50.950;11.108;2023-04-03T12:59:50;99724.78;;;5.74;61.11
34586;BME280;20816;50.950;11.108;2023-04-03T13:02:26;99717.56;;;6.11;61.14
34586;BME280;20816;50.950;11.108;2023-04-03T13:04:57;99716.16;;;7.15;57.81
34586;BME280;20816;50.950;11.108;2023-04-03T13:07:30;99705.72;;;7.15;59.07
34586;BME280;20816;50.950;11.108;2023-04-03T13:12:47;99711.44;;;6.79;56.99
34586;BME280;20816;50.950;11.108;2023-04-03T13:15:45;99709.69;;;6.76;57.07
34586;BME280;20816;50.950;11.108;2023-04-03T13:18:32;99713.75;;;6.53;56.66
34586;BME280;20816;50.950;11.108;2023-04-03T13:21:05;99711.28;;;6.66;54.99
34586;BME280;20816;50.950;11.108;2023-04-03T13:23:36;99709.31;;;7.26;54.17
34586;BME280;20816;50.950;11.108;2023-04-03T13:26:05;99698.44;;;7.86;54.54
34586;BME280;20816;50.950;11.108;2023-04-03T13:28:34;99714.69;;;7.44;54.68
34586;BME280;20816;50.950;11.108;2023-04-03T13:31:06;99717.78;;;7.02;59.44
34586;BME280;20816;50.950;11.108;2023-04-03T13:33:35;99713.56;;;6.37;59.86
34586;BME280;20816;50.950;11.108;2023-04-03T13:36:08;99723.34;;;5.92;60.17
34586;BME280;20816;50.950;11.108;2023-04-03T13:38:37;99716.94;;;5.73;58.48
34586;BME280;20816;50.950;11.108;2023-04-03T13:41:23;99712.91;;;5.39;58.38
34586;BME280;20816;50.950;11.108;2023-04-03T13:43:50;99714.44;;;5.26;58.69
34586;BME280;20816;50.950;11.108;2023-04-03T13:46:25;99706.13;;;5.50;58.90
34586;BME280;20816;50.950;11.108;2023-04-03T13:48:55;99699.56;;;6.32;59.32
34586;BME280;20816;50.950;11.108;2023-04-03T13:51:28;99703.47;;;6.00;60.82
34586;BME280;20816;50.950;11.108;2023-04-03T13:53:58;99708.25;;;5.74;61.60
34586;BME280;20816;50.950;11.108;2023-04-03T13:56:37;99706.44;;;5.68;62.41
34586;BME280;20816;50.950;11.108;2023-04-03T13:59:23;99699.78;;;5.32;61.94
34586;BME280;20816;50.950;11.108;2023-04-03T14:02:09;99702.22;;;5.23;62.51
34586;BME280;20816;50.950;11.108;2023-04-03T14:07:11;99696.22;;;5.29;62.13
34586;BME280;20816;50.950;11.108;2023-04-03T14:09:38;99685.53;;;5.65;60.58
34586;BME280;20816;50.950;11.108;2023-04-03T14:12:11;99687.56;;;5.86;59.34
34586;BME280;20816;50.950;11.108;2023-04-03T14:14:55;99693.44;;;5.71;60.50
34586;BME280;20816;50.950;11.108;2023-04-03T14:17:25;99701.69;;;5.43;61.60
34586;BME280;20816;50.950;11.108;2023-04-03T14:19:54;99691.25;;;5.43;62.60
34586;BME280;20816;50.950;11.108;2023-04-03T14:22:23;99689.31;;;5.29;62.15
34586;BME280;20816;50.950;11.108;2023-04-03T14:24:50;99689.31;;;5.29;62.83
34586;BME280;20816;50.950;11.108;2023-04-03T14:27:27;99693.69;;;5.33;62.26
34586;BME280;20816;50.950;11.108;2023-04-03T14:29:56;99698.81;;;5.29;60.82
34586;BME280;20816;50.950;11.108;2023-04-03T14:32:24;99684.78;;;5.21;62.55
34586;BME280;20816;50.950;11.108;2023-04-03T14:34:52;99691.84;;;5.28;59.34
34586;BME280;20816;50.950;11.108;2023-04-03T14:37:22;99689.50;;;5.43;58.75